Time;durP1;ratioP1;P1;durP2;ratioP2;P2;SDS_P1;SDS_P2;PMS_P1;PMS_P2;Temp;Humidity;BMP_temperature;BMP_pressure;BME280_temperature;BME280_humidity;BME280_pressure;Samples;Min_cycle;Max_cycle;Signal;HPM_P1;HPM_P2
2022/12/29 00:01:16;;;;;;;2.50;1.20;;;;;;;12.10;60.16;100328.94;5005947;28;98230;-70
2022/12/29 00:03:43;;;;;;;2.67;1.10;;;;;;;12.26;59.88;100327.28;4995509;28;97379;-68
2022/12/29 00:06:09;;;;;;;2.45;1.10;;;;;;;12.36;59.43;100317.09;5005174;28;96891;-69
2022/12/29 00:08:40;;;;;;;3.80;1.30;;;;;;;12.16;59.33;100310.09;5000575;28;99207;-67
2022/12/29 00:11:07;;;;;;;2.00;1.15;;;;;;;12.13;59.74;100317.38;5001871;28;99213;-69
2022/12/29 00:16:18;;;;;;;2.10;1.13;;;;;;;12.24;59.10;100310.59;4996034;28;97589;-70
2022/12/29 00:18:44;;;;;;;1.67;1.00;;;;;;;12.30;59.52;100304.13;5005217;28;99047;-68
2022/12/29 00:35:09;;;;;;;3.83;1.38;;;;;;;12.24;59.16;100302.66;5002828;28;97400;-69
2022/12/29 00:45:49;;;;;;;1.98;1.05;;;;;;;12.23;59.27;100290.34;4999148;28;97087;-67
2022/12/29 00:49:29;;;;;;;2.47;1.00;;;;;;;12.07;59.96;100285.88;5005766;28;96891;-69
2022/12/29 00:51:02;;;;;;;2.20;1.00;;;;;;;12.15;59.86;100289.00;5003027;28;99122;-69
2022/12/29 00:53:28;;;;;;;5.18;1.10;;;;;;;12.28;59.46;100276.84;4994641;28;99242;-68
2022/12/29 00:55:56;;;;;;;1.50;0.88;;;;;;;12.62;58.60;100278.66;5004188;28;96912;-68
2022/12/29 00:58:22;;;;;;;1.98;1.10;;;;;;;12.36;59.06;100285.28;4992435;28;97665;-68
2022/12/29 01:00:48;;;;;;;3.00;1.25;;;;;;;12.30;59.36;100283.81;5003340;28;98604;-69
2022/12/29 01:03:15;;;;;;;4.05;1.48;;;;;;;12.20;59.86;100279.91;4997522;28;98761;-70
2022/12/29 01:05:41;;;;;;;1.35;1.25;;;;;;;12.46;59.50;100281.25;5001655;28;96797;-70
2022/12/29 01:08:08;;;;;;;3.28;1.25;;;;;;;12.51;59.15;100278.38;4996976;28;97408;-76
2022/12/29 01:10:33;;;;;;;1.35;1.20;;;;;;;12.34;59.38;100272.09;5003293;28;97636;-71
2022/12/29 01:13:01;;;;;;;;;;;;;;;12.21;59.37;100264.84;4998898;28;98865;-71
2022/12/29 01:15:27;;;;;;;3.88;1.30;;;;;;;12.19;59.95;100269.38;5000315;28;96774;-71
2022/12/29 01:17:53;;;;;;;2.35;0.90;;;;;;;12.36;59.38;100280.84;5003265;28;98895;-69
2022/12/29 01:20:20;;;;;;;1.67;1.00;;;;;;;12.44;58.87;100263.72;5006497;28;99151;-70
2022/12/29 01:22:47;;;;;;;1.25;0.90;;;;;;;12.33;59.13;100267.78;5000214;28;98361;-71
2022/12/29 01:25:13;;;;;;;2.97;1.25;;;;;;;12.45;58.84;100274.25;5007439;28;98263;-71
2022/12/29 01:27:39;;;;;;;2.85;0.90;;;;;;;12.45;58.50;100278.69;5011979;28;97063;-70
2022/12/29 01:30:09;;;;;;;3.38;1.02;;;;;;;12.50;58.87;100272.22;5003661;28;99076;-69
2022/12/29 01:32:35;;;;;;;2.03;0.93;;;;;;;12.57;58.45;100268.31;5011003;28;98946;-68
2022/12/29 01:35:02;;;;;;;2.80;1.33;;;;;;;12.59;58.44;100270.88;5008816;28;96807;-69
2022/12/29 01:37:28;;;;;;;3.85;1.20;;;;;;;12.37;58.76;100269.31;5010046;28;96683;-70
2022/12/29 01:39:54;;;;;;;2.60;1.00;;;;;;;12.50;58.59;100271.34;5007856;28;97684;-70
2022/12/29 01:42:25;;;;;;;2.28;1.10;;;;;;;12.25;59.18;100267.28;5003646;28;99642;-70
2022/12/29 01:44:54;;;;;;;2.95;1.27;;;;;;;12.36;59.18;100269.38;4999191;28;97637;-70
2022/12/29 01:47:30;;;;;;;4.57;1.27;;;;;;;12.23;59.93;100271.78;5013423;28;96966;-69
2022/12/29 01:49:59;;;;;;;1.77;1.02;;;;;;;12.25;60.02;100274.38;5003049;28;99451;-70
2022/12/29 01:52:29;;;;;;;1.13;0.90;;;;;;;12.52;59.01;100273.00;5008072;28;101498;-69
2022/12/29 01:54:58;;;;;;;2.58;1.30;;;;;;;12.29;60.23;100268.84;5008579;28;96847;-70
2022/12/29 01:57:28;;;;;;;1.92;1.27;;;;;;;12.24;60.58;100262.91;5006913;28;96877;-69
2022/12/29 01:59:59;;;;;;;1.75;1.10;;;;;;;12.42;60.09;100252.31;5007268;28;97580;-69
2022/12/29 02:02:27;;;;;;;2.08;1.00;;;;;;;12.37;61.10;100250.78;5005770;28;99816;-69
2022/12/29 02:04:56;;;;;;;2.25;0.93;;;;;;;12.63;59.95;100240.63;5009437;28;96800;-70
2022/12/29 02:07:27;;;;;;;3.75;1.02;;;;;;;12.41;60.48;100238.22;5009614;28;96915;-70
2022/12/29 02:09:55;;;;;;;4.97;1.13;;;;;;;12.44;60.97;100242.50;4998514;28;99440;-71
2022/12/29 02:12:24;;;;;;;1.05;0.95;;;;;;;12.61;60.46;100237.19;5006794;28;96738;-70
2022/12/29 02:14:54;;;;;;;2.47;1.15;;;;;;;12.76;60.13;100228.44;5005605;28;96920;-69
2022/12/29 02:17:33;;;;;;;2.03;0.93;;;;;;;12.70;60.17;100234.06;5007077;28;96852;-70
2022/12/29 02:20:51;;;;;;;1.50;1.02;;;;;;;12.73;59.72;100225.97;5007357;28;98940;-69
2022/12/29 02:23:41;;;;;;;2.28;1.02;;;;;;;12.76;59.14;100223.16;5005146;28;102153;-70
2022/12/29 02:26:35;;;;;;;2.22;1.08;;;;;;;12.75;58.73;100218.78;5005458;28;98823;-71
2022/12/29 02:29:21;;;;;;;2.97;0.90;;;;;;;12.66;58.93;100229.88;5003770;28;96771;-70
2022/12/29 02:31:58;;;;;;;1.45;0.80;;;;;;;12.59;58.66;100217.88;5002264;28;100342;-70
2022/12/29 02:34:33;;;;;;;3.60;1.50;;;;;;;12.75;58.13;100203.72;5002935;28;99064;-69
2022/12/29 02:37:08;;;;;;;1.63;1.10;;;;;;;12.75;57.37;100208.16;5001815;28;96906;-69
2022/12/29 02:39:41;;;;;;;1.13;1.02;;;;;;;12.66;57.45;100208.66;5008562;28;96741;-69
2022/12/29 02:42:20;;;;;;;2.65;1.30;;;;;;;12.65;57.33;100204.31;5011068;28;103329;-69
2022/12/29 02:44:55;;;;;;;1.73;1.00;;;;;;;12.78;57.05;100197.41;5006109;28;97731;-69
2022/12/29 02:47:28;;;;;;;1.35;0.95;;;;;;;12.76;56.32;100189.53;5003207;28;96827;-69
2022/12/29 02:50:00;;;;;;;5.68;1.40;;;;;;;12.91;56.42;100201.13;5005149;28;96785;-69
2022/12/29 02:52:31;;;;;;;3.17;1.15;;;;;;;12.92;55.93;100209.94;5000262;28;98178;-70
2022/12/29 02:54:58;;;;;;;4.05;1.00;;;;;;;12.91;56.06;100200.28;5004515;28;98808;-70
2022/12/29 02:57:34;;;;;;;3.13;0.93;;;;;;;13.06;55.58;100202.09;5002601;28;96797;-70
2022/12/29 03:00:07;;;;;;;1.75;0.98;;;;;;;12.94;55.40;100195.63;5007992;28;97682;-70
2022/12/29 03:03:17;;;;;;;2.42;1.20;;;;;;;12.96;55.39;100184.97;5003155;28;100901;-70
2022/12/29 03:05:58;;;;;;;1.85;1.17;;;;;;;13.02;55.06;100192.59;4984293;28;101465;-69
2022/12/29 03:08:33;;;;;;;1.40;1.05;;;;;;;13.09;54.87;100186.00;5004943;28;97663;-70
2022/12/29 03:11:03;;;;;;;4.65;1.10;;;;;;;13.05;54.67;100185.34;4999508;28;96931;-70
2022/12/29 03:16:24;;;;;;;1.42;0.95;;;;;;;13.10;54.38;100169.16;5013064;28;97296;-69
2022/12/29 03:19:01;;;;;;;2.25;1.00;;;;;;;13.16;54.43;100172.38;5002009;28;97051;-69
2022/12/29 03:24:23;;;;;;;2.67;0.90;;;;;;;13.24;54.04;100163.97;4999291;28;97162;-69
2022/12/29 03:26:52;;;;;;;1.55;1.10;;;;;;;13.26;54.07;100170.03;5008323;28;98876;-69
2022/12/29 03:29:24;;;;;;;2.45;1.17;;;;;;;13.30;53.84;100160.13;5005931;28;97066;-69
2022/12/29 03:31:54;;;;;;;2.50;0.80;;;;;;;13.33;54.00;100167.91;5007009;28;97149;-70
2022/12/29 03:34:23;;;;;;;1.40;0.95;;;;;;;13.31;53.72;100164.50;5005250;28;98214;-69
2022/12/29 03:36:56;;;;;;;1.30;0.90;;;;;;;13.30;53.93;100168.94;5007388;28;99148;-70
2022/12/29 03:39:24;;;;;;;1.05;0.93;;;;;;;13.42;53.72;100170.06;5002397;28;97419;-70
2022/12/29 03:41:56;;;;;;;1.80;1.00;;;;;;;13.37;53.81;100167.66;5003319;28;97178;-69
2022/12/29 03:44:32;;;;;;;2.50;1.10;;;;;;;13.41;53.63;100160.38;5006662;28;99132;-70
2022/12/29 03:46:59;;;;;;;5.25;1.67;;;;;;;13.46;53.49;100156.50;5005729;28;98835;-69
2022/12/29 03:49:26;;;;;;;2.72;1.00;;;;;;;13.34;54.17;100164.31;5003405;28;97478;-68
2022/12/29 03:51:53;;;;;;;2.92;1.10;;;;;;;13.33;53.94;100158.16;5001113;28;96843;-69
2022/12/29 03:54:19;;;;;;;1.48;1.15;;;;;;;13.38;53.98;100163.22;5000310;28;101861;-69
2022/12/29 03:56:46;;;;;;;4.18;1.00;;;;;;;13.63;53.57;100163.53;5006175;28;97722;-69
2022/12/29 03:59:12;;;;;;;1.80;0.93;;;;;;;13.56;53.87;100175.44;5003662;28;96740;-70
2022/12/29 04:01:39;;;;;;;3.47;1.67;;;;;;;13.55;53.57;100171.06;5005583;28;97351;-69
2022/12/29 04:04:05;;;;;;;3.22;1.10;;;;;;;13.66;53.21;100165.13;5007965;28;98862;-70
2022/12/29 04:06:34;;;;;;;2.20;0.90;;;;;;;13.61;53.48;100156.59;5004109;28;98972;-69
2022/12/29 04:09:01;;;;;;;5.95;1.08;;;;;;;13.68;53.40;100150.84;5000098;28;96883;-69
2022/12/29 04:11:27;;;;;;;2.97;0.80;;;;;;;13.85;53.26;100156.03;5004539;28;96797;-70
2022/12/29 04:13:53;;;;;;;1.38;1.15;;;;;;;13.75;53.55;100165.47;5002930;28;99241;-70
2022/12/29 04:16:20;;;;;;;2.95;0.90;;;;;;;13.74;53.56;100160.25;5005326;28;101671;-68
2022/12/29 04:18:46;;;;;;;2.65;1.30;;;;;;;13.84;53.42;100159.66;5006917;28;97804;-70
2022/12/29 04:21:11;;;;;;;3.53;1.00;;;;;;;13.86;53.11;100149.78;5008636;28;98988;-70
2022/12/29 04:23:40;;;;;;;;;;;;;;;13.83;53.28;100152.63;5002395;28;99472;-70
2022/12/29 04:26:08;;;;;;;5.97;1.52;;;;;;;13.68;53.66;100166.78;5008739;28;98405;-70
2022/12/29 04:28:35;;;;;;;2.08;1.10;;;;;;;13.69;54.00;100180.91;5009288;28;96751;-70
2022/12/29 04:31:02;;;;;;;1.33;1.23;;;;;;;13.81;53.51;100146.53;5003632;28;98655;-71
2022/12/29 04:33:28;;;;;;;2.38;0.95;;;;;;;13.77;53.66;100139.69;5007532;28;100259;-70
2022/12/29 04:35:55;;;;;;;2.50;1.15;;;;;;;13.77;53.49;100142.38;5003154;28;97694;-71
2022/12/29 04:38:23;;;;;;;2.13;1.17;;;;;;;13.58;54.11;100141.72;5012514;28;96881;-70
2022/12/29 04:40:52;;;;;;;5.00;1.45;;;;;;;13.76;53.78;100132.69;5002751;28;96936;-70
2022/12/29 04:43:19;;;;;;;7.47;1.33;;;;;;;13.75;53.66;100138.06;5007169;28;99306;-70
2022/12/29 04:45:46;;;;;;;2.50;0.90;;;;;;;13.79;53.41;100129.81;4998221;28;98023;-70
2022/12/29 04:48:14;;;;;;;1.25;0.80;;;;;;;13.51;54.28;100140.34;5005099;28;98572;-70
2022/12/29 04:50:41;;;;;;;2.58;1.02;;;;;;;13.32;54.97;100139.69;5000759;28;97532;-71
2022/12/29 04:53:07;;;;;;;5.20;1.02;;;;;;;13.19;55.65;100136.00;5003358;28;99297;-70
2022/12/29 04:55:34;;;;;;;3.88;1.17;;;;;;;13.33;54.88;100126.31;5003202;28;99385;-70
2022/12/29 04:58:02;;;;;;;1.90;1.10;;;;;;;13.56;54.52;100119.69;5006434;28;96987;-69
2022/12/29 05:00:28;;;;;;;1.75;1.20;;;;;;;13.56;54.47;100127.66;5003816;28;96855;-69
2022/12/29 05:02:55;;;;;;;1.58;0.98;;;;;;;13.59;54.25;100126.66;5007369;28;99050;-69
2022/12/29 05:05:21;;;;;;;4.43;1.10;;;;;;;13.55;54.42;100139.22;5011360;28;99784;-70
2022/12/29 05:07:48;;;;;;;1.40;1.17;;;;;;;13.57;54.44;100126.72;5008438;28;97124;-70
2022/12/29 05:10:14;;;;;;;3.55;0.85;;;;;;;13.66;54.25;100118.22;5008024;28;97607;-69
2022/12/29 05:12:41;;;;;;;1.63;1.05;;;;;;;13.72;53.96;100127.66;5011796;28;98453;-70
2022/12/29 05:15:10;;;;;;;4.60;1.40;;;;;;;13.72;54.27;100125.00;5011069;28;99256;-72
2022/12/29 05:17:37;;;;;;;1.73;1.20;;;;;;;13.55;54.66;100123.28;5002214;28;96788;-72
2022/12/29 05:20:05;;;;;;;1.52;1.00;;;;;;;13.79;54.13;100113.91;5006152;28;97775;-71
2022/12/29 05:22:31;;;;;;;2.60;1.10;;;;;;;13.63;54.46;100110.44;5004716;28;99010;-70
2022/12/29 05:24:58;;;;;;;2.58;0.90;;;;;;;13.51;54.85;100103.19;5009455;28;99051;-70
2022/12/29 05:27:24;;;;;;;3.42;1.00;;;;;;;13.62;54.69;100097.25;5006247;28;97182;-72
2022/12/29 05:29:51;;;;;;;2.55;1.10;;;;;;;13.74;54.68;100102.69;5009033;28;96890;-71
2022/12/29 05:32:19;;;;;;;1.17;0.98;;;;;;;13.80;54.45;100097.03;5003781;28;99395;-71
2022/12/29 05:34:45;;;;;;;3.30;1.23;;;;;;;13.60;55.03;100093.81;5005507;28;98672;-70
2022/12/29 05:37:12;;;;;;;3.40;1.08;;;;;;;13.67;55.23;100101.34;5008089;28;96886;-72
2022/12/29 05:39:38;;;;;;;1.98;1.02;;;;;;;13.53;55.46;100093.31;5009560;28;96924;-70
2022/12/29 05:42:05;;;;;;;2.55;1.10;;;;;;;13.85;55.19;100088.78;5003960;28;99310;-69
2022/12/29 05:44:32;;;;;;;1.80;1.00;;;;;;;13.86;54.38;100090.50;5008913;28;103195;-69
2022/12/29 05:46:58;;;;;;;1.42;0.82;;;;;;;13.93;54.47;100092.69;4996662;28;97158;-71
2022/12/29 05:49:26;;;;;;;1.20;1.08;;;;;;;14.07;54.29;100091.00;5008633;28;96996;-71
2022/12/29 05:51:53;;;;;;;2.03;1.25;;;;;;;13.98;54.53;100087.09;5007277;28;100688;-69
2022/12/29 05:54:19;;;;;;;3.65;1.13;;;;;;;14.06;54.44;100089.31;5010438;28;99284;-70
2022/12/29 05:56:46;;;;;;;2.78;1.08;;;;;;;14.18;54.08;100088.56;5007764;28;97182;-70
2022/12/29 05:59:12;;;;;;;2.20;0.98;;;;;;;14.23;54.35;100091.81;5011966;28;96946;-72
2022/12/29 06:01:38;;;;;;;2.75;1.25;;;;;;;14.18;54.13;100084.09;5000856;28;99275;-69
2022/12/29 06:04:05;;;;;;;1.27;1.10;;;;;;;14.12;54.14;100080.97;5002779;28;101053;-69
2022/12/29 06:06:33;;;;;;;1.98;1.00;;;;;;;13.97;54.59;100074.78;5003655;28;98615;-69
2022/12/29 06:08:59;;;;;;;1.08;0.98;;;;;;;14.12;54.51;100068.53;5009405;28;97258;-70
2022/12/29 06:11:26;;;;;;;3.47;1.00;;;;;;;13.95;54.89;100069.56;4999796;28;98689;-69
2022/12/29 06:13:52;;;;;;;4.00;1.00;;;;;;;14.14;54.55;100081.72;5006183;28;97840;-69
2022/12/29 06:16:19;;;;;;;1.40;0.98;;;;;;;14.25;54.37;100074.81;4999443;28;96778;-69
2022/12/29 06:18:45;;;;;;;2.20;1.00;;;;;;;14.05;54.59;100071.66;5006450;28;96859;-69
2022/12/29 06:21:12;;;;;;;1.40;0.90;;;;;;;14.19;54.38;100074.31;5002674;28;101433;-69
2022/12/29 06:23:40;;;;;;;3.30;1.48;;;;;;;14.27;54.37;100082.69;5008690;28;100678;-69
2022/12/29 06:26:06;;;;;;;3.15;0.90;;;;;;;14.22;54.44;100074.16;5009432;28;96869;-70
2022/12/29 06:28:32;;;;;;;2.10;1.00;;;;;;;14.40;54.32;100082.81;5009213;28;96984;-69
2022/12/29 06:30:59;;;;;;;2.80;1.30;;;;;;;14.30;54.47;100082.53;5013299;28;100680;-70
2022/12/29 06:33:25;;;;;;;2.03;1.00;;;;;;;14.32;54.31;100075.28;5010695;28;97730;-71
2022/12/29 06:35:52;;;;;;;1.98;1.10;;;;;;;14.40;54.12;100081.03;5006909;28;96868;-70
2022/12/29 06:38:18;;;;;;;2.28;1.15;;;;;;;14.52;53.84;100080.25;5014126;28;96963;-71
2022/12/29 06:40:46;;;;;;;2.30;0.90;;;;;;;14.65;53.56;100089.19;4995902;28;99377;-70
2022/12/29 06:43:13;;;;;;;1.73;1.15;;;;;;;14.46;53.91;100091.28;5009059;28;98871;-71
2022/12/29 06:45:39;;;;;;;0.93;0.90;;;;;;;14.42;54.41;100102.19;4999999;28;96846;-70
2022/12/29 06:48:06;;;;;;;2.08;1.00;;;;;;;14.47;54.08;100100.97;5006181;28;97022;-71
2022/12/29 06:50:33;;;;;;;1.25;0.90;;;;;;;14.33;54.13;100088.50;5007555;28;98963;-69
2022/12/29 06:52:59;;;;;;;5.95;1.08;;;;;;;14.35;54.30;100091.91;5005329;28;100018;-70
2022/12/29 06:55:25;;;;;;;2.03;0.70;;;;;;;14.42;54.38;100097.75;5002300;28;96838;-70
2022/12/29 06:57:56;;;;;;;1.02;0.90;;;;;;;14.27;54.81;100095.97;5004469;28;96928;-70
2022/12/29 07:00:22;;;;;;;1.75;0.90;;;;;;;14.43;54.38;100102.13;5006397;28;99426;-70
2022/12/29 07:02:49;;;;;;;1.42;1.02;;;;;;;14.41;54.78;100111.97;5014700;28;99142;-70
2022/12/29 07:05:15;;;;;;;3.22;1.20;;;;;;;14.30;54.71;100109.09;5001474;28;96884;-70
2022/12/29 07:07:41;;;;;;;2.65;1.13;;;;;;;14.27;54.87;100101.28;5004724;28;96806;-70
2022/12/29 07:10:08;;;;;;;1.85;1.02;;;;;;;14.28;54.87;100092.38;5000073;28;99284;-70
2022/12/29 07:12:35;;;;;;;3.33;0.90;;;;;;;14.32;54.66;100107.19;5005372;28;99026;-70
2022/12/29 07:15:02;;;;;;;1.63;0.80;;;;;;;14.05;55.51;100112.34;5001210;28;96748;-70
2022/12/29 07:17:29;;;;;;;1.50;0.93;;;;;;;13.94;55.87;100107.69;5001856;28;96971;-69
2022/12/29 07:19:55;;;;;;;1.05;0.80;;;;;;;14.15;55.28;100115.31;4999585;27;98959;-68
2022/12/29 07:22:22;;;;;;;1.00;0.88;;;;;;;14.03;55.66;100094.81;4999181;28;101216;-70
2022/12/29 07:24:48;;;;;;;3.30;1.17;;;;;;;14.17;55.29;100111.66;4999400;28;97806;-69
2022/12/29 07:27:15;;;;;;;3.97;1.20;;;;;;;14.22;55.08;100112.22;5001297;28;96980;-69
2022/12/29 07:29:41;;;;;;;2.58;0.80;;;;;;;14.16;55.17;100112.59;5002381;28;99029;-69
2022/12/29 07:32:09;;;;;;;1.65;0.80;;;;;;;14.15;55.27;100112.66;5006179;28;97626;-68
2022/12/29 07:34:35;;;;;;;3.38;1.10;;;;;;;14.12;55.38;100102.22;5000510;28;96810;-69
2022/12/29 07:37:01;;;;;;;2.60;0.85;;;;;;;14.18;55.29;100100.03;5008872;28;98221;-69
2022/12/29 07:39:28;;;;;;;1.55;0.80;;;;;;;13.86;56.16;100096.66;5003313;28;99016;-69
2022/12/29 07:41:54;;;;;;;3.58;0.55;;;;;;;14.04;55.78;100093.88;5008553;28;99021;-69
2022/12/29 07:44:21;;;;;;;3.53;0.80;;;;;;;14.00;55.97;100092.31;5010180;28;96872;-70
2022/12/29 07:46:47;;;;;;;0.82;0.70;;;;;;;13.94;56.25;100093.56;5008799;28;97149;-69
2022/12/29 07:49:15;;;;;;;2.13;1.02;;;;;;;13.92;56.27;100098.94;5005490;28;99227;-69
2022/12/29 07:51:41;;;;;;;1.85;1.00;;;;;;;14.01;56.32;100100.22;5010827;27;99506;-70
2022/12/29 07:54:07;;;;;;;0.90;0.80;;;;;;;14.00;56.10;100100.28;5005733;28;97218;-69
2022/12/29 07:56:34;;;;;;;2.03;0.88;;;;;;;13.91;56.32;100091.09;5005713;28;96876;-70
2022/12/29 07:59:00;;;;;;;1.35;0.90;;;;;;;14.00;56.36;100100.28;4999353;28;101765;-70
2022/12/29 08:01:27;;;;;;;0.95;0.63;;;;;;;13.97;56.38;100106.66;5004382;28;98928;-70
2022/12/29 08:03:53;;;;;;;0.70;0.70;;;;;;;13.92;56.46;100106.06;5006149;28;98489;-70
2022/12/29 08:06:22;;;;;;;2.25;0.93;;;;;;;13.97;56.77;100098.69;5011195;28;96879;-70
2022/12/29 08:08:48;;;;;;;2.53;0.80;;;;;;;14.02;56.29;100101.94;5007044;28;99023;-70
2022/12/29 08:11:14;;;;;;;1.30;0.90;;;;;;;13.98;56.30;100109.22;5000467;28;99074;-70
2022/12/29 08:13:41;;;;;;;1.63;0.85;;;;;;;14.09;56.15;100102.41;4997840;28;96843;-69
2022/12/29 08:16:07;;;;;;;2.92;0.90;;;;;;;14.09;56.22;100102.41;5000352;28;96873;-70
2022/12/29 08:18:34;;;;;;;0.88;0.75;;;;;;;13.91;56.50;100105.19;5008874;28;100053;-67
2022/12/29 08:21:02;;;;;;;1.13;0.90;;;;;;;14.20;56.05;100097.31;5008431;28;98746;-67
2022/12/29 08:23:30;;;;;;;5.90;0.90;;;;;;;14.19;56.02;100095.59;4999837;28;99038;-67
2022/12/29 08:25:58;;;;;;;1.75;0.80;;;;;;;14.43;55.24;100103.91;5002875;28;97062;-68
2022/12/29 08:28:25;;;;;;;2.42;1.00;;;;;;;14.41;55.42;100105.81;5008900;28;98888;-67
2022/12/29 08:30:51;;;;;;;1.00;0.70;;;;;;;14.13;55.82;100106.59;5010443;28;101556;-66
2022/12/29 08:33:18;;;;;;;1.92;0.85;;;;;;;13.88;56.50;100113.38;5008668;28;98943;-69
2022/12/29 08:35:44;;;;;;;2.83;1.00;;;;;;;14.10;56.22;100094.38;5008557;28;96864;-67
2022/12/29 08:38:11;;;;;;;1.83;0.73;;;;;;;14.09;56.18;100087.34;5013335;28;98882;-67
2022/12/29 08:40:39;;;;;;;0.75;0.70;;;;;;;14.08;56.10;100090.94;5004997;28;101211;-67
2022/12/29 08:43:06;;;;;;;1.10;0.90;;;;;;;14.09;56.10;100086.47;5013806;28;97089;-68
2022/12/29 08:45:33;;;;;;;1.70;0.70;;;;;;;13.96;56.45;100094.31;5004855;28;96835;-68
2022/12/29 08:47:59;;;;;;;1.23;0.90;;;;;;;14.06;56.39;100097.28;5011411;28;99319;-69
2022/12/29 08:50:25;;;;;;;4.90;1.65;;;;;;;14.05;56.58;100096.41;5008549;28;99199;-69
2022/12/29 08:52:52;;;;;;;3.90;1.00;;;;;;;14.07;56.38;100102.50;5012683;28;96718;-71
2022/12/29 08:55:18;;;;;;;1.42;0.95;;;;;;;14.35;55.77;100091.06;5006059;28;96894;-70
2022/12/29 08:57:46;;;;;;;2.25;0.80;;;;;;;14.58;54.87;100093.16;5009409;28;97631;-69
2022/12/29 09:00:14;;;;;;;1.88;0.98;;;;;;;14.70;54.73;100096.91;5009010;28;97545;-70
2022/12/29 09:02:41;;;;;;;3.13;0.88;;;;;;;14.77;54.28;100092.88;5005500;28;97321;-69
2022/12/29 09:05:09;;;;;;;2.67;0.80;;;;;;;14.57;54.85;100094.13;5009459;28;97165;-69
2022/12/29 09:07:35;;;;;;;0.80;0.50;;;;;;;14.61;54.75;100092.13;5008475;28;99552;-69
2022/12/29 09:10:02;;;;;;;1.20;0.80;;;;;;;14.49;55.11;100090.25;5007279;28;99440;-69
2022/12/29 09:12:29;;;;;;;2.22;0.90;;;;;;;14.32;55.60;100086.78;5003625;28;99059;-70
2022/12/29 09:14:56;;;;;;;1.95;0.88;;;;;;;14.23;56.00;100087.34;5008266;28;97102;-69
2022/12/29 09:20:08;;;;;;;3.55;0.75;;;;;;;14.62;55.10;100088.53;5012446;28;97515;-70
2022/12/29 09:22:35;;;;;;;1.48;0.80;;;;;;;14.77;54.46;100076.09;5011726;28;97057;-69
2022/12/29 09:25:01;;;;;;;4.00;1.13;;;;;;;14.44;55.51;100084.38;5008573;28;96891;-69
2022/12/29 09:27:28;;;;;;;2.08;0.75;;;;;;;14.78;54.51;100078.63;5010330;28;99828;-73
2022/12/29 09:29:57;;;;;;;1.30;0.70;;;;;;;14.81;54.48;100081.09;5011166;28;99575;-70
2022/12/29 09:32:24;;;;;;;1.48;0.70;;;;;;;14.81;54.63;100072.28;5011008;28;96922;-69
2022/12/29 09:34:50;;;;;;;4.40;0.98;;;;;;;14.61;54.90;100076.19;5008322;28;97025;-69
2022/12/29 09:37:17;;;;;;;1.92;0.70;;;;;;;14.89;54.23;100067.31;5009625;28;99161;-70
2022/12/29 09:39:43;;;;;;;1.35;0.65;;;;;;;14.67;54.61;100063.38;5010034;28;99480;-71
2022/12/29 09:42:17;;;;;;;1.27;0.80;;;;;;;14.58;54.97;100055.94;5008703;28;96806;-70
2022/12/29 09:44:53;;;;;;;1.08;0.70;;;;;;;14.76;54.79;100067.25;5003400;28;97418;-70
2022/12/29 09:47:24;;;;;;;1.88;0.77;;;;;;;14.70;54.93;100055.19;5005086;28;99445;-71
2022/12/29 09:49:55;;;;;;;2.17;0.95;;;;;;;14.72;54.89;100057.75;5004181;28;98929;-70
2022/12/29 09:52:25;;;;;;;4.50;1.02;;;;;;;14.96;54.40;100071.31;5003639;28;97007;-71
2022/12/29 09:54:56;;;;;;;2.17;0.77;;;;;;;14.96;54.14;100061.53;5009294;28;97053;-71
2022/12/29 09:57:25;;;;;;;2.03;0.70;;;;;;;14.71;54.76;100069.31;5003951;28;98976;-71
2022/12/29 09:59:57;;;;;;;0.90;0.80;;;;;;;14.96;54.60;100071.31;5004818;28;99975;-71
2022/12/29 10:02:33;;;;;;;2.00;0.85;;;;;;;15.20;53.81;100064.38;5005089;28;96799;-70
2022/12/29 10:04:59;;;;;;;3.17;0.80;;;;;;;15.36;53.46;100069.56;4999029;28;98071;-70
2022/12/29 10:07:34;;;;;;;2.60;0.82;;;;;;;15.30;53.58;100072.59;5004662;28;98901;-70
2022/12/29 10:10:11;;;;;;;3.10;0.88;;;;;;;15.43;53.08;100071.69;5005572;28;99184;-70
2022/12/29 10:12:53;;;;;;;5.32;0.90;;;;;;;15.37;53.29;100061.47;5003645;28;97350;-70
2022/12/29 10:15:34;;;;;;;1.33;0.80;;;;;;;15.23;53.73;100072.16;4996792;28;97597;-69
2022/12/29 10:18:14;;;;;;;6.55;1.02;;;;;;;15.35;53.53;100063.41;4999732;28;102242;-70
2022/12/29 10:20:50;;;;;;;2.88;0.90;;;;;;;15.36;53.70;100070.41;5003528;28;99396;-70
2022/12/29 10:23:27;;;;;;;1.40;0.80;;;;;;;15.64;52.78;100058.81;4998179;28;97269;-70
2022/12/29 10:25:56;;;;;;;2.03;0.85;;;;;;;15.54;52.97;100047.94;5001668;28;98389;-70
2022/12/29 10:28:24;;;;;;;1.25;0.77;;;;;;;15.67;52.91;100057.75;5000955;28;98813;-70
2022/12/29 10:30:53;;;;;;;2.72;0.77;;;;;;;15.63;53.13;100065.09;5003995;28;99046;-70
2022/12/29 10:33:25;;;;;;;2.80;0.90;;;;;;;15.97;52.38;100052.16;5004952;28;97330;-70
2022/12/29 10:35:51;;;;;;;3.47;0.70;;;;;;;16.24;51.39;100053.78;5007065;28;96871;-70
2022/12/29 10:38:26;;;;;;;2.35;0.80;;;;;;;16.46;50.67;100060.28;5004907;28;101405;-71
2022/12/29 10:40:58;;;;;;;2.10;0.95;;;;;;;16.60;50.52;100060.19;5006807;28;99137;-70
2022/12/29 10:43:27;;;;;;;3.38;0.77;;;;;;;16.81;50.00;100058.63;5001202;28;98225;-70
2022/12/29 10:45:57;;;;;;;1.38;0.60;;;;;;;16.57;50.29;100041.69;4999811;28;97085;-70
2022/12/29 10:48:29;;;;;;;2.08;0.88;;;;;;;16.70;50.19;100043.41;4999729;28;98900;-70
2022/12/29 10:50:59;;;;;;;2.25;0.80;;;;;;;16.66;50.32;100039.25;5001916;28;98902;-71
2022/12/29 10:53:30;;;;;;;1.98;0.50;;;;;;;16.34;51.14;100044.16;4998097;28;96871;-71
2022/12/29 10:55:57;;;;;;;1.60;0.73;;;;;;;16.61;50.58;100043.19;4999386;28;96934;-70
2022/12/29 10:58:25;;;;;;;1.75;0.77;;;;;;;16.44;50.98;100051.50;5001424;28;98914;-70
2022/12/29 11:00:54;;;;;;;2.45;0.77;;;;;;;16.33;51.14;100039.81;4998621;28;99425;-70
2022/12/29 11:03:42;;;;;;;1.30;0.60;;;;;;;16.41;51.03;100043.75;5000255;28;96897;-72
2022/12/29 11:06:13;;;;;;;2.30;1.00;;;;;;;16.35;51.18;100035.19;5004044;28;96844;-70
2022/12/29 11:08:52;;;;;;;1.38;0.82;;;;;;;16.29;51.44;100048.09;4999407;28;99535;-70
2022/12/29 11:11:25;;;;;;;1.80;0.70;;;;;;;16.03;51.97;100035.75;5000375;28;97767;-71
2022/12/29 11:13:58;;;;;;;1.98;0.65;;;;;;;16.16;51.93;100039.25;5004624;28;97355;-69
2022/12/29 11:16:31;;;;;;;1.30;0.80;;;;;;;16.31;51.30;100049.72;5005062;28;97822;-70
2022/12/29 11:18:59;;;;;;;1.60;0.85;;;;;;;16.40;51.21;100044.72;4997782;28;101971;-72
2022/12/29 11:21:31;;;;;;;1.67;0.80;;;;;;;16.48;50.83;100053.00;4999718;27;99031;-71
2022/12/29 11:24:00;;;;;;;1.38;0.73;;;;;;;16.13;51.81;100044.81;4995621;28;98551;-69
2022/12/29 11:26:27;;;;;;;5.60;0.77;;;;;;;16.05;52.25;100053.34;5001677;28;96927;-68
2022/12/29 11:29:22;;;;;;;4.22;0.90;;;;;;;16.24;51.84;100058.25;4998667;28;99215;-69
2022/12/29 11:31:50;;;;;;;3.30;0.60;;;;;;;16.35;51.37;100066.34;5001157;28;98923;-68
2022/12/29 11:34:23;;;;;;;1.27;0.80;;;;;;;16.18;52.04;100061.34;5001574;28;98232;-70
2022/12/29 11:36:51;;;;;;;2.70;0.73;;;;;;;16.10;52.56;100067.19;5000838;28;99374;-68
2022/12/29 11:39:34;;;;;;;2.70;1.13;;;;;;;16.10;53.44;100061.88;4997868;28;99349;-69
2022/12/29 11:42:03;;;;;;;1.95;1.05;;;;;;;15.88;54.02;100061.66;4998397;28;99358;-70
2022/12/29 11:44:36;;;;;;;2.08;0.60;;;;;;;15.59;55.02;100076.06;5004886;28;97588;-69
2022/12/29 11:47:02;;;;;;;1.10;0.60;;;;;;;15.56;55.09;100061.13;5004616;28;97340;-69
2022/12/29 11:50:00;;;;;;;;;;;;;;;;;;;;;
2022/12/29 11:52:30;;;;;;;2.22;0.68;;;;;;;15.88;54.56;100070.47;4990069;28;126919;-69
2022/12/29 11:54:58;;;;;;;1.42;0.55;;;;;;;15.56;54.52;100071.78;5001768;28;98774;-69
2022/12/29 11:57:25;;;;;;;1.83;0.40;;;;;;;15.72;54.30;100072.47;4999032;28;96970;-69
2022/12/29 11:59:55;;;;;;;0.80;0.45;;;;;;;15.81;54.53;100071.88;4996206;28;99986;-69
2022/12/29 12:02:43;;;;;;;3.28;0.55;;;;;;;15.43;55.97;100066.38;5004301;28;98672;-70
2022/12/29 12:05:26;;;;;;;1.15;0.50;;;;;;;15.28;57.51;100075.41;5001881;28;97885;-70
2022/12/29 12:07:57;;;;;;;1.33;0.65;;;;;;;15.07;58.85;100069.66;5003919;28;97573;-68
2022/12/29 12:10:28;;;;;;;2.92;0.95;;;;;;;14.82;60.43;100071.31;5003604;28;99314;-70